createdAt,value
2023-05-21T00:02:22.244Z,15.73
2023-05-21T00:04:48.837Z,16.07
2023-05-21T00:07:15.517Z,15.53
2023-05-21T00:09:42.048Z,16.80
2023-05-21T00:12:09.638Z,16.03
2023-05-21T00:14:36.479Z,17.93
2023-05-21T00:17:03.071Z,17.63
2023-05-21T00:19:29.861Z,16.30
2023-05-21T00:21:57.637Z,15.97
2023-05-21T00:24:24.186Z,16.93
2023-05-21T00:26:50.933Z,16.23
2023-05-21T00:29:17.441Z,16.90
2023-05-21T00:31:44.180Z,16.17
2023-05-21T00:34:10.907Z,17.10
2023-05-21T00:36:38.024Z,17.23
2023-05-21T00:39:04.679Z,17.00
2023-05-21T00:41:31.317Z,16.70
2023-05-21T00:44:00.278Z,17.73
2023-05-21T00:46:28.532Z,16.90
2023-05-21T00:48:57.987Z,17.17
2023-05-21T00:51:25.815Z,16.43
2023-05-21T00:53:52.933Z,17.17
2023-05-21T00:56:22.680Z,17.50
2023-05-21T00:58:51.858Z,17.23
2023-05-21T01:01:19.386Z,16.27
2023-05-21T01:03:48.651Z,17.07
2023-05-21T01:06:15.980Z,17.93
2023-05-21T01:08:42.522Z,17.17
2023-05-21T01:11:09.949Z,16.17
2023-05-21T01:13:40.138Z,17.93
2023-05-21T01:16:08.829Z,19.43
2023-05-21T01:18:37.511Z,17.90
2023-05-21T01:21:05.041Z,17.33
2023-05-21T01:23:31.933Z,16.67
2023-05-21T01:25:58.462Z,17.27
2023-05-21T01:28:25.008Z,17.00
2023-05-21T01:30:51.877Z,17.53
2023-05-21T01:33:26.014Z,17.77
2023-05-21T01:36:09.381Z,16.80
2023-05-21T01:38:43.644Z,18.27
2023-05-21T01:41:16.598Z,17.63
2023-05-21T01:43:46.251Z,18.10
2023-05-21T01:46:17.074Z,17.00
2023-05-21T01:48:44.922Z,18.20
2023-05-21T01:51:13.272Z,17.70
2023-05-21T01:53:41.633Z,17.30
2023-05-21T01:56:08.656Z,17.13
2023-05-21T01:58:36.196Z,17.30
2023-05-21T02:01:03.898Z,17.73
2023-05-21T02:03:31.656Z,18.90
2023-05-21T02:05:58.757Z,18.27
2023-05-21T02:08:25.700Z,19.17
2023-05-21T02:10:53.155Z,18.07
2023-05-21T02:13:21.959Z,19.67
2023-05-21T02:15:51.877Z,19.80
2023-05-21T02:18:18.705Z,20.50
2023-05-21T02:20:45.665Z,18.73
2023-05-21T02:23:12.664Z,19.23
2023-05-21T02:25:39.899Z,18.10
2023-05-21T02:28:07.839Z,21.40
2023-05-21T02:30:34.942Z,21.73
2023-05-21T02:33:03.209Z,23.67
2023-05-21T02:35:30.010Z,26.23
2023-05-21T02:37:59.421Z,25.97
2023-05-21T02:40:26.431Z,28.33
2023-05-21T02:42:53.572Z,28.07
2023-05-21T02:45:21.963Z,31.73
2023-05-21T02:47:49.210Z,29.67
2023-05-21T02:50:18.857Z,31.50
2023-05-21T02:52:52.525Z,38.70
2023-05-21T02:55:20.059Z,38.10
2023-05-21T02:57:47.586Z,35.33
2023-05-21T03:00:14.793Z,36.40
2023-05-21T03:02:43.497Z,31.03
2023-05-21T03:05:11.110Z,30.57
2023-05-21T03:07:38.473Z,27.90
2023-05-21T03:10:05.929Z,30.60
2023-05-21T03:12:33.304Z,29.73
2023-05-21T03:15:00.924Z,29.23
2023-05-21T03:17:28.259Z,26.13
2023-05-21T03:19:55.122Z,26.07
2023-05-21T03:22:22.662Z,26.30
2023-05-21T03:24:49.843Z,25.13
2023-05-21T03:27:18.170Z,25.70
2023-05-21T03:29:46.611Z,23.47
2023-05-21T03:32:14.425Z,22.67
2023-05-21T03:34:42.716Z,22.20
2023-05-21T03:37:09.742Z,21.90
2023-05-21T03:39:36.994Z,21.40
2023-05-21T03:42:04.283Z,20.40
2023-05-21T03:44:48.780Z,20.90
2023-05-21T03:47:30.799Z,21.47
2023-05-21T03:49:58.822Z,21.53
2023-05-21T03:52:25.744Z,20.60
2023-05-21T03:54:52.942Z,20.57
2023-05-21T03:57:19.808Z,20.13
2023-05-21T03:59:48.022Z,21.37
2023-05-21T04:02:15.544Z,20.70
2023-05-21T04:04:43.996Z,20.63
2023-05-21T04:07:14.814Z,21.00
2023-05-21T04:09:42.175Z,21.73
2023-05-21T04:12:09.080Z,22.73
2023-05-21T04:14:37.639Z,22.03
2023-05-21T04:17:05.485Z,20.67
2023-05-21T04:19:33.448Z,20.57
2023-05-21T04:22:01.221Z,19.43
2023-05-21T04:24:28.210Z,19.07
2023-05-21T04:27:17.989Z,18.63
2023-05-21T04:29:45.108Z,19.90
2023-05-21T04:32:11.678Z,19.03
2023-05-21T04:34:39.615Z,18.57
2023-05-21T04:37:06.878Z,17.83
2023-05-21T04:39:34.732Z,19.07
2023-05-21T04:42:02.088Z,18.87
2023-05-21T04:44:29.554Z,19.47
2023-05-21T04:46:58.732Z,18.53
2023-05-21T04:49:25.607Z,19.03
2023-05-21T04:51:52.143Z,17.00
2023-05-21T04:54:18.716Z,17.80
2023-05-21T04:56:45.253Z,17.47
2023-05-21T04:59:11.787Z,17.93
2023-05-21T05:01:38.598Z,17.90
2023-05-21T05:04:05.911Z,18.03
2023-05-21T05:06:32.685Z,17.70
2023-05-21T05:08:59.335Z,16.57
2023-05-21T05:11:26.584Z,17.43
2023-05-21T05:13:53.217Z,16.57
2023-05-21T05:16:25.041Z,16.23
2023-05-21T05:18:52.729Z,16.27
2023-05-21T05:21:21.193Z,17.53
2023-05-21T05:23:47.795Z,16.70
2023-05-21T05:26:14.391Z,16.23
2023-05-21T05:28:40.936Z,17.33
2023-05-21T05:31:07.516Z,16.67
2023-05-21T05:33:34.308Z,15.57
2023-05-21T05:36:00.915Z,15.63
2023-05-21T05:38:27.985Z,15.00
2023-05-21T05:40:54.542Z,14.53
2023-05-21T05:43:21.473Z,10.40
2023-05-21T05:45:48.787Z,11.70
2023-05-21T05:48:16.751Z,11.73
2023-05-21T05:50:44.951Z,11.03
2023-05-21T05:53:13.303Z,11.63
2023-05-21T05:55:40.588Z,12.23
2023-05-21T05:58:07.398Z,11.80
2023-05-21T06:00:46.077Z,11.77
2023-05-21T06:03:13.265Z,11.37
2023-05-21T06:05:41.637Z,12.50
2023-05-21T06:08:08.188Z,12.73
2023-05-21T06:10:34.761Z,12.33
2023-05-21T06:13:01.268Z,12.00
2023-05-21T06:15:27.784Z,11.53
2023-05-21T06:17:54.361Z,12.00
2023-05-21T06:20:20.938Z,11.70
2023-05-21T06:22:47.570Z,12.00
2023-05-21T06:25:14.584Z,12.37
2023-05-21T06:27:41.237Z,11.23
2023-05-21T06:30:15.660Z,11.60
2023-05-21T06:32:43.491Z,11.70
2023-05-21T06:35:10.165Z,11.80
2023-05-21T06:37:36.745Z,11.90
2023-05-21T06:40:03.839Z,11.93
2023-05-21T06:42:31.319Z,11.90
2023-05-21T06:45:23.907Z,11.27
2023-05-21T06:47:53.536Z,12.17
2023-05-21T06:50:20.493Z,11.60
2023-05-21T06:52:47.052Z,11.83
2023-05-21T06:55:14.047Z,11.60
2023-05-21T06:57:59.036Z,11.70
2023-05-21T07:00:25.891Z,11.63
2023-05-21T07:02:53.368Z,11.90
2023-05-21T07:05:20.243Z,11.87
2023-05-21T07:07:46.737Z,12.53
2023-05-21T07:10:13.229Z,12.57
2023-05-21T07:12:41.249Z,11.57
2023-05-21T07:15:09.145Z,12.13
2023-05-21T07:17:35.804Z,11.10
2023-05-21T07:20:02.700Z,12.27
2023-05-21T07:22:30.139Z,11.10
2023-05-21T07:24:56.647Z,11.93
2023-05-21T07:27:25.752Z,12.57
2023-05-21T07:29:53.732Z,11.57
2023-05-21T07:32:21.398Z,12.07
2023-05-21T07:34:48.410Z,13.00
2023-05-21T07:37:14.960Z,12.67
2023-05-21T07:39:41.473Z,11.80
2023-05-21T07:42:08.953Z,12.20
2023-05-21T07:44:35.489Z,12.33
2023-05-21T07:47:02.378Z,11.67
2023-05-21T07:49:28.888Z,12.93
2023-05-21T07:51:55.656Z,12.50
2023-05-21T07:54:22.360Z,12.03
2023-05-21T07:56:49.482Z,12.13
2023-05-21T07:59:31.766Z,13.37
2023-05-21T08:01:58.353Z,12.80
2023-05-21T08:04:25.071Z,12.93
2023-05-21T08:06:51.973Z,11.67
2023-05-21T08:09:19.338Z,12.63
2023-05-21T08:11:46.587Z,12.60
2023-05-21T08:14:13.174Z,12.87
2023-05-21T08:16:39.873Z,13.07
2023-05-21T08:19:06.572Z,13.90
2023-05-21T08:21:34.028Z,13.33
2023-05-21T08:24:01.268Z,13.30
2023-05-21T08:26:27.911Z,12.80
2023-05-21T08:28:54.489Z,12.10
2023-05-21T08:31:21.439Z,12.80
2023-05-21T08:33:52.610Z,12.90
2023-05-21T08:36:24.831Z,12.40
2023-05-21T08:38:56.307Z,12.50
2023-05-21T08:41:35.831Z,12.70
2023-05-21T08:44:02.766Z,12.13
2023-05-21T08:46:34.657Z,12.07
2023-05-21T08:49:02.799Z,12.47
2023-05-21T08:51:31.078Z,11.50
2023-05-21T08:53:59.599Z,12.00
2023-05-21T08:56:27.214Z,12.40
2023-05-21T08:58:57.271Z,12.90
2023-05-21T09:01:27.910Z,12.23
2023-05-21T09:04:19.643Z,12.20
2023-05-21T09:06:49.296Z,12.13
2023-05-21T09:09:31.811Z,11.00
2023-05-21T09:11:58.401Z,11.77
2023-05-21T09:14:26.391Z,12.53
2023-05-21T09:17:01.328Z,11.93
2023-05-21T09:19:30.179Z,11.77
2023-05-21T09:22:04.808Z,12.10
2023-05-21T09:24:35.812Z,12.10
2023-05-21T09:27:06.363Z,11.70
2023-05-21T09:29:34.393Z,11.93
2023-05-21T09:32:06.913Z,11.70
2023-05-21T09:34:37.032Z,12.23
2023-05-21T09:37:06.469Z,12.07
2023-05-21T09:39:35.755Z,12.00
2023-05-21T09:42:04.178Z,12.03
2023-05-21T09:44:32.399Z,13.37
2023-05-21T09:46:59.583Z,12.33
2023-05-21T09:49:26.747Z,12.00
2023-05-21T09:51:58.080Z,12.70
2023-05-21T09:54:26.038Z,11.97
2023-05-21T09:56:53.515Z,12.47
2023-05-21T09:59:20.907Z,12.37
2023-05-21T10:01:51.505Z,12.03
2023-05-21T10:04:18.797Z,13.13
2023-05-21T10:06:47.802Z,11.97
2023-05-21T10:09:15.687Z,12.37
2023-05-21T10:11:44.689Z,12.30
2023-05-21T10:14:22.378Z,11.87
2023-05-21T10:16:50.063Z,11.77
2023-05-21T10:19:17.079Z,11.80
2023-05-21T10:21:44.876Z,12.53
2023-05-21T10:24:11.877Z,13.03
2023-05-21T10:26:39.536Z,12.17
2023-05-21T10:29:07.852Z,11.83
2023-05-21T10:31:35.971Z,11.80
2023-05-21T10:34:06.017Z,12.00
2023-05-21T10:36:34.091Z,12.37
2023-05-21T10:39:01.885Z,12.10
2023-05-21T10:41:36.059Z,12.30
2023-05-21T10:45:04.223Z,12.17
2023-05-21T10:47:45.936Z,11.83
2023-05-21T10:50:40.806Z,11.67
2023-05-21T10:53:34.075Z,12.10
2023-05-21T10:56:28.657Z,11.73
2023-05-21T10:59:07.892Z,11.87
2023-05-21T11:01:37.587Z,12.20
2023-05-21T11:04:06.032Z,12.47
2023-05-21T11:06:32.820Z,12.97
2023-05-21T11:09:11.840Z,12.23
2023-05-21T11:11:48.409Z,12.13
2023-05-21T11:14:40.598Z,11.83
2023-05-21T11:17:16.426Z,10.93
2023-05-21T11:19:47.066Z,11.53
2023-05-21T11:22:26.370Z,12.00
2023-05-21T11:24:54.870Z,11.23
2023-05-21T11:27:32.374Z,11.20
2023-05-21T11:29:59.519Z,11.67
2023-05-21T11:32:26.145Z,12.00
2023-05-21T11:34:52.724Z,11.10
2023-05-21T11:37:20.779Z,10.90
2023-05-21T11:39:48.415Z,11.10
2023-05-21T11:42:38.739Z,10.37
2023-05-21T11:45:05.950Z,10.43
2023-05-21T11:47:32.933Z,10.70
2023-05-21T11:50:01.860Z,11.50
2023-05-21T11:52:30.294Z,11.23
2023-05-21T11:54:58.158Z,10.93
2023-05-21T11:57:30.532Z,10.83
2023-05-21T11:59:58.570Z,11.03
2023-05-21T12:02:29.297Z,10.13
2023-05-21T12:05:00.213Z,10.20
2023-05-21T12:07:31.471Z,10.93
2023-05-21T12:09:58.469Z,11.40
2023-05-21T12:12:27.232Z,11.27
2023-05-21T12:14:58.653Z,10.80
2023-05-21T12:17:31.221Z,10.97
2023-05-21T12:19:57.915Z,12.00
2023-05-21T12:22:25.324Z,10.77
2023-05-21T12:24:53.771Z,11.10
2023-05-21T12:27:22.153Z,11.90
2023-05-21T12:29:52.990Z,10.87
2023-05-21T12:32:21.172Z,11.97
2023-05-21T12:34:53.206Z,11.07
2023-05-21T12:37:25.891Z,11.47
2023-05-21T12:39:54.328Z,10.43
2023-05-21T12:42:36.899Z,10.93
2023-05-21T12:45:07.863Z,10.90
2023-05-21T12:47:35.088Z,11.23
2023-05-21T12:50:03.005Z,10.67
2023-05-21T12:52:33.411Z,11.13
2023-05-21T12:55:00.048Z,10.60
2023-05-21T12:57:28.523Z,10.47
2023-05-21T12:59:59.580Z,11.43
2023-05-21T13:02:31.741Z,11.63
2023-05-21T13:04:59.256Z,10.53
2023-05-21T13:07:27.154Z,11.70
2023-05-21T13:09:54.258Z,10.43
2023-05-21T13:12:22.702Z,11.70
2023-05-21T13:14:54.209Z,11.43
2023-05-21T13:17:21.972Z,10.87
2023-05-21T13:20:13.694Z,10.80
2023-05-21T13:22:42.815Z,11.83
2023-05-21T13:25:15.589Z,10.90
2023-05-21T13:27:43.077Z,11.00
2023-05-21T13:30:11.630Z,10.53
2023-05-21T13:32:39.473Z,11.27
2023-05-21T13:35:06.476Z,10.60
2023-05-21T13:37:36.112Z,10.10
2023-05-21T13:40:04.243Z,9.67
2023-05-21T13:42:30.880Z,10.13
2023-05-21T13:44:57.711Z,10.80
2023-05-21T13:47:24.741Z,9.63
2023-05-21T13:49:51.691Z,10.23
2023-05-21T13:52:21.303Z,9.77
2023-05-21T13:54:48.252Z,10.30
2023-05-21T13:57:15.489Z,10.10
2023-05-21T13:59:42.296Z,10.13
2023-05-21T14:02:10.463Z,10.20
2023-05-21T14:04:39.280Z,10.60
2023-05-21T14:07:06.986Z,9.50
2023-05-21T14:09:33.987Z,10.00
2023-05-21T14:12:01.437Z,10.27
2023-05-21T14:14:28.111Z,10.10
2023-05-21T14:16:54.766Z,10.40
2023-05-21T14:19:21.605Z,10.10
2023-05-21T14:21:48.338Z,10.33
2023-05-21T14:24:14.830Z,9.63
2023-05-21T14:26:41.514Z,10.37
2023-05-21T14:29:08.340Z,10.00
2023-05-21T14:31:35.049Z,10.33
2023-05-21T14:34:02.952Z,10.20
2023-05-21T14:36:29.760Z,10.50
2023-05-21T14:38:56.379Z,10.07
2023-05-21T14:41:26.916Z,9.90
2023-05-21T14:43:53.793Z,10.17
2023-05-21T14:46:20.773Z,10.47
2023-05-21T14:48:47.402Z,10.17
2023-05-21T14:51:14.483Z,10.10
2023-05-21T14:53:41.194Z,9.77
2023-05-21T14:56:07.948Z,10.30
2023-05-21T14:58:34.570Z,10.37
2023-05-21T15:01:02.263Z,10.87
2023-05-21T15:03:28.904Z,10.17
2023-05-21T15:05:55.476Z,9.90
2023-05-21T15:08:22.656Z,10.27
2023-05-21T15:10:49.209Z,10.03
2023-05-21T15:13:15.954Z,9.67
2023-05-21T15:15:42.541Z,10.00
2023-05-21T15:18:09.202Z,9.87
2023-05-21T15:20:35.757Z,10.37
2023-05-21T15:25:31.753Z,9.93
2023-05-21T15:27:58.267Z,10.10
2023-05-21T15:30:27.187Z,9.93
2023-05-21T15:32:54.014Z,10.10
2023-05-21T15:35:20.742Z,9.93
2023-05-21T15:37:47.416Z,9.80
2023-05-21T15:40:13.955Z,9.90
2023-05-21T15:42:40.719Z,9.73
2023-05-21T15:45:07.764Z,9.87
2023-05-21T15:47:34.373Z,9.60
2023-05-21T15:50:01.167Z,10.53
2023-05-21T15:52:27.848Z,10.77
2023-05-21T15:54:54.747Z,9.80
2023-05-21T15:57:21.274Z,9.90
2023-05-21T15:59:47.841Z,9.83
2023-05-21T16:02:14.346Z,9.90
2023-05-21T16:04:40.866Z,9.70
2023-05-21T16:07:07.413Z,10.23
2023-05-21T16:09:33.953Z,10.17
2023-05-21T16:12:00.837Z,10.20
2023-05-21T16:14:29.254Z,10.53
2023-05-21T16:16:58.195Z,9.97
2023-05-21T16:19:24.821Z,10.93
2023-05-21T16:21:51.431Z,9.67
2023-05-21T16:24:17.952Z,10.00
2023-05-21T16:26:45.944Z,9.60
2023-05-21T16:29:12.483Z,9.43
2023-05-21T16:31:39.018Z,9.93
2023-05-21T16:34:05.577Z,9.07
2023-05-21T16:36:32.306Z,9.50
2023-05-21T16:38:58.816Z,8.87
2023-05-21T16:41:25.357Z,9.37
2023-05-21T16:43:54.239Z,8.90
2023-05-21T16:46:21.120Z,9.73
2023-05-21T16:48:47.676Z,9.53
2023-05-21T16:51:14.213Z,9.57
2023-05-21T16:53:40.891Z,9.97
2023-05-21T16:56:07.435Z,8.80
2023-05-21T16:58:36.066Z,9.03
2023-05-21T17:01:02.663Z,9.43
2023-05-21T17:03:31.858Z,8.77
2023-05-21T17:05:58.731Z,9.03
2023-05-21T17:08:25.477Z,9.47
2023-05-21T17:10:52.252Z,9.00
2023-05-21T17:13:22.797Z,9.50
2023-05-21T17:15:51.380Z,10.20
2023-05-21T17:18:17.973Z,9.10
2023-05-21T17:20:44.683Z,9.53
2023-05-21T17:23:11.873Z,9.33
2023-05-21T17:25:39.184Z,9.17
2023-05-21T17:28:06.138Z,9.37
2023-05-21T17:30:32.695Z,8.73
2023-05-21T17:33:01.737Z,10.20
2023-05-21T17:35:28.369Z,19.00
2023-05-21T17:37:55.082Z,18.10
2023-05-21T17:40:24.192Z,13.17
2023-05-21T17:42:52.021Z,13.73
2023-05-21T17:45:18.707Z,14.57
2023-05-21T17:47:45.266Z,11.33
2023-05-21T17:50:11.829Z,12.03
2023-05-21T17:52:38.332Z,9.53
2023-05-21T17:55:05.367Z,9.50
2023-05-21T17:57:31.913Z,10.43
2023-05-21T17:59:58.490Z,11.73
2023-05-21T18:02:25.984Z,9.83
2023-05-21T18:04:52.598Z,9.77
2023-05-21T18:07:19.114Z,10.20
2023-05-21T18:09:45.616Z,9.30
2023-05-21T18:12:12.188Z,9.90
2023-05-21T18:14:38.693Z,10.20
2023-05-21T18:17:05.918Z,8.87
2023-05-21T18:19:32.723Z,11.20
2023-05-21T18:21:59.318Z,9.83
2023-05-21T18:24:25.891Z,10.87
2023-05-21T18:26:52.494Z,10.77
2023-05-21T18:29:19.002Z,10.27
2023-05-21T18:31:45.767Z,11.67
2023-05-21T18:34:12.380Z,10.70
2023-05-21T18:36:39.060Z,10.97
2023-05-21T18:39:07.050Z,11.43
2023-05-21T18:41:33.951Z,10.97
2023-05-21T18:44:03.681Z,11.57
2023-05-21T18:46:31.627Z,11.00
2023-05-21T18:48:59.701Z,10.87
2023-05-21T18:51:26.509Z,11.00
2023-05-21T18:53:53.145Z,11.13
2023-05-21T18:56:19.709Z,11.27
2023-05-21T18:58:47.481Z,11.13
2023-05-21T19:01:14.118Z,11.57
2023-05-21T19:03:40.727Z,11.60
2023-05-21T19:06:08.283Z,11.47
2023-05-21T19:08:34.797Z,11.57
2023-05-21T19:11:01.319Z,11.43
2023-05-21T19:13:27.918Z,12.37
2023-05-21T19:15:54.558Z,11.23
2023-05-21T19:18:21.141Z,11.70
2023-05-21T19:20:47.643Z,11.87
2023-05-21T19:23:14.389Z,10.83
2023-05-21T19:25:41.501Z,11.50
2023-05-21T19:28:07.999Z,11.53
2023-05-21T19:30:36.367Z,12.23
2023-05-21T19:33:03.436Z,11.43
2023-05-21T19:35:30.326Z,11.60
2023-05-21T19:38:00.607Z,12.03
2023-05-21T19:40:28.273Z,11.87
2023-05-21T19:42:54.821Z,11.50
2023-05-21T19:45:21.649Z,12.37
2023-05-21T19:47:48.539Z,11.27
2023-05-21T19:50:15.109Z,11.77
2023-05-21T19:52:41.616Z,11.10
2023-05-21T19:55:09.913Z,11.77
2023-05-21T19:57:37.115Z,11.23
2023-05-21T20:00:05.343Z,11.30
2023-05-21T20:02:39.013Z,11.67
2023-05-21T20:05:06.126Z,11.53
2023-05-21T20:07:32.806Z,12.00
2023-05-21T20:09:59.396Z,12.23
2023-05-21T20:12:26.014Z,11.93
2023-05-21T20:14:54.156Z,12.63
2023-05-21T20:17:20.765Z,12.50
2023-05-21T20:19:48.043Z,13.00
2023-05-21T20:22:18.071Z,13.07
2023-05-21T20:24:44.569Z,12.63
2023-05-21T20:27:11.201Z,12.23
2023-05-21T20:29:37.715Z,11.40
2023-05-21T20:32:04.506Z,12.33
2023-05-21T20:34:31.896Z,11.10
2023-05-21T20:36:58.470Z,11.20
2023-05-21T20:39:27.634Z,12.10
2023-05-21T20:41:55.098Z,11.90
2023-05-21T20:44:22.408Z,11.70
2023-05-21T20:46:49.212Z,11.97
2023-05-21T20:49:17.610Z,11.60
2023-05-21T20:51:44.419Z,12.53
2023-05-21T20:54:11.445Z,12.00
2023-05-21T20:56:42.595Z,12.33
2023-05-21T20:59:11.152Z,12.73
2023-05-21T21:01:39.154Z,12.53
2023-05-21T21:04:06.067Z,12.13
2023-05-21T21:06:33.819Z,11.97
2023-05-21T21:09:00.332Z,12.30
2023-05-21T21:11:27.107Z,12.47
2023-05-21T21:13:53.641Z,13.63
2023-05-21T21:16:20.585Z,13.10
2023-05-21T21:18:47.270Z,12.30
2023-05-21T21:21:14.006Z,13.17
2023-05-21T21:23:40.676Z,12.93
2023-05-21T21:26:07.233Z,13.10
2023-05-21T21:28:34.006Z,14.03
2023-05-21T21:31:00.777Z,13.23
2023-05-21T21:33:28.364Z,14.00
2023-05-21T21:35:55.166Z,13.50
2023-05-21T21:38:22.009Z,13.63
2023-05-21T21:40:48.648Z,13.23
2023-05-21T21:43:15.256Z,13.37
2023-05-21T21:45:41.802Z,13.93
2023-05-21T21:48:08.521Z,13.60
2023-05-21T21:50:35.043Z,13.93
2023-05-21T21:53:03.475Z,14.30
2023-05-21T21:55:30.064Z,14.83
2023-05-21T21:57:56.640Z,15.80
2023-05-21T22:00:26.559Z,14.27
2023-05-21T22:02:53.797Z,15.97
2023-05-21T22:05:20.883Z,14.43
2023-05-21T22:07:47.838Z,15.53
2023-05-21T22:10:16.067Z,15.30
2023-05-21T22:12:43.963Z,15.27
2023-05-21T22:15:24.970Z,15.50
2023-05-21T22:17:51.983Z,14.30
2023-05-21T22:20:18.677Z,15.00
2023-05-21T22:22:46.040Z,15.13
2023-05-21T22:25:12.625Z,14.47
2023-05-21T22:27:39.173Z,14.60
2023-05-21T22:30:06.415Z,14.27
2023-05-21T22:32:32.953Z,14.43
2023-05-21T22:34:59.508Z,14.73
2023-05-21T22:37:26.215Z,14.93
2023-05-21T22:39:52.924Z,15.10
2023-05-21T22:42:19.653Z,14.27
2023-05-21T22:44:46.443Z,15.00
2023-05-21T22:47:13.957Z,15.10
2023-05-21T22:49:40.674Z,14.40
2023-05-21T22:52:09.297Z,14.37
2023-05-21T22:54:36.131Z,14.57
2023-05-21T22:57:03.266Z,15.20
2023-05-21T22:59:29.789Z,15.57
2023-05-21T23:01:56.382Z,15.47
2023-05-21T23:04:35.652Z,14.17
2023-05-21T23:07:06.676Z,14.80
2023-05-21T23:09:33.295Z,14.40
2023-05-21T23:11:59.821Z,15.10
2023-05-21T23:14:26.370Z,15.03
2023-05-21T23:16:53.897Z,15.53
2023-05-21T23:19:21.200Z,15.60
2023-05-21T23:21:47.801Z,15.23
2023-05-21T23:24:14.367Z,15.27
2023-05-21T23:26:40.861Z,15.67
2023-05-21T23:29:07.395Z,14.70
2023-05-21T23:31:33.901Z,14.83
2023-05-21T23:34:02.703Z,15.20
2023-05-21T23:36:29.203Z,15.13
2023-05-21T23:38:55.878Z,15.13
2023-05-21T23:41:23.795Z,15.47
2023-05-21T23:43:50.769Z,14.00
2023-05-21T23:46:17.360Z,14.97
2023-05-21T23:48:43.934Z,15.07
2023-05-21T23:51:10.488Z,15.63
2023-05-21T23:53:36.985Z,15.30
2023-05-21T23:56:03.628Z,14.93
2023-05-21T23:58:30.178Z,14.60
